Time;durP1;ratioP1;P1;durP2;ratioP2;P2;SDS_P1;SDS_P2;PMS_P1;PMS_P2;Temp;Humidity;BMP_temperature;BMP_pressure;BME280_temperature;BME280_humidity;BME280_pressure;Samples;Min_cycle;Max_cycle;Signal;HPM_P1;HPM_P2
2023/08/27 00:00:46;;;;;;;11.45;8.25;;;;;;;;;;5051360;28;20125;-76
2023/08/27 00:03:12;;;;;;;12.02;8.40;;;;;;;;;;5060659;28;20045;-76
2023/08/27 00:05:42;;;;;;;9.80;7.97;;;;;;;;;;5047034;28;20171;-77
2023/08/27 00:08:08;;;;;;;11.65;7.90;;;;;;;;;;5041634;28;20053;-77
2023/08/27 00:10:34;;;;;;;10.48;7.90;;;;;;;;;;5060266;28;20041;-76
2023/08/27 00:13:00;;;;;;;10.48;8.55;;;;;;;;;;5034737;28;20123;-76
2023/08/27 00:15:26;;;;;;;10.23;7.80;;;;;;;;;;5050070;28;20036;-76
2023/08/27 00:17:52;;;;;;;9.55;8.40;;;;;;;;;;5064384;28;20052;-76
2023/08/27 00:20:18;;;;;;;10.38;7.85;;;;;;;;;;5060929;28;20040;-76
2023/08/27 00:22:44;;;;;;;12.98;8.45;;;;;;;;;;5055908;28;20037;-76
2023/08/27 00:25:10;;;;;;;12.27;8.68;;;;;;;;;;5062374;28;20056;-76
2023/08/27 00:27:36;;;;;;;9.18;7.50;;;;;;;;;;5066606;28;20047;-76
2023/08/27 00:30:06;;;;;;;8.70;7.57;;;;;;;;;;5044084;28;20060;-76
2023/08/27 00:32:33;;;;;;;9.15;7.25;;;;;;;;;;5065197;28;20044;-76
2023/08/27 00:35:00;;;;;;;10.15;7.93;;;;;;;;;;5057566;28;20465;-76
2023/08/27 00:37:26;;;;;;;10.98;8.25;;;;;;;;;;5049223;28;20041;-77
2023/08/27 00:39:53;;;;;;;13.05;9.05;;;;;;;;;;5066993;28;20051;-76
2023/08/27 00:42:19;;;;;;;9.10;7.78;;;;;;;;;;5051160;28;20049;-76
2023/08/27 00:44:45;;;;;;;12.77;8.95;;;;;;;;;;5067922;28;20503;-76
2023/08/27 00:47:11;;;;;;;12.25;8.57;;;;;;;;;;5070807;28;20044;-76
2023/08/27 00:49:38;;;;;;;11.32;8.50;;;;;;;;;;5067670;28;20056;-76
2023/08/27 00:52:05;;;;;;;9.40;7.68;;;;;;;;;;5053983;28;20045;-76
2023/08/27 00:54:33;;;;;;;10.10;8.18;;;;;;;;;;5063595;28;20041;-77
2023/08/27 00:56:59;;;;;;;9.43;7.80;;;;;;;;;;5067236;28;20053;-76
2023/08/27 00:59:26;;;;;;;8.15;7.05;;;;;;;;;;5059668;28;20048;-76
2023/08/27 01:01:52;;;;;;;9.40;7.90;;;;;;;;;;5070337;28;20032;-76
2023/08/27 01:04:18;;;;;;;9.25;7.75;;;;;;;;;;5051708;28;20051;-77
2023/08/27 01:06:44;;;;;;;9.10;7.30;;;;;;;;;;5056575;28;20063;-76
2023/08/27 01:09:18;;;;;;;11.82;8.52;;;;;;;;;;5047069;28;20048;-76
2023/08/27 01:11:56;;;;;;;8.10;7.00;;;;;;;;;;5040271;28;20048;-76
2023/08/27 01:14:23;;;;;;;9.55;7.88;;;;;;;;;;5058871;28;20056;-76
2023/08/27 01:16:50;;;;;;;10.10;8.02;;;;;;;;;;5062460;28;20032;-76
2023/08/27 01:19:17;;;;;;;10.50;7.88;;;;;;;;;;5049449;28;20041;-76
2023/08/27 01:21:44;;;;;;;10.15;8.60;;;;;;;;;;5050121;28;20067;-76
2023/08/27 01:24:10;;;;;;;8.77;7.88;;;;;;;;;;5046478;28;20046;-77
2023/08/27 01:26:45;;;;;;;10.32;8.75;;;;;;;;;;5050647;28;20056;-76
2023/08/27 01:29:30;;;;;;;11.80;9.30;;;;;;;;;;5066850;28;20044;-76
2023/08/27 01:32:19;;;;;;;9.90;8.90;;;;;;;;;;5057482;28;20044;-76
2023/08/27 01:34:46;;;;;;;11.02;9.40;;;;;;;;;;5051207;28;20300;-76
2023/08/27 01:37:13;;;;;;;10.32;9.23;;;;;;;;;;5066443;28;20066;-76
2023/08/27 01:39:42;;;;;;;10.77;9.77;;;;;;;;;;5063207;28;20044;-76
2023/08/27 01:42:08;;;;;;;11.00;9.13;;;;;;;;;;5049345;28;20045;-76
2023/08/27 01:44:34;;;;;;;11.07;9.32;;;;;;;;;;5065137;28;20049;-76
2023/08/27 01:47:00;;;;;;;10.55;9.45;;;;;;;;;;5037390;28;20050;-76
2023/08/27 01:49:26;;;;;;;13.35;9.90;;;;;;;;;;5061232;28;20045;-76
2023/08/27 01:51:52;;;;;;;11.30;9.38;;;;;;;;;;5061410;28;20036;-76
2023/08/27 01:54:18;;;;;;;13.27;9.23;;;;;;;;;;5051035;28;20056;-76
2023/08/27 01:56:44;;;;;;;10.77;9.55;;;;;;;;;;5066213;28;20112;-76
2023/08/27 01:59:11;;;;;;;12.75;9.63;;;;;;;;;;5057348;28;20041;-76
2023/08/27 02:01:37;;;;;;;14.55;10.10;;;;;;;;;;5066425;28;20044;-76
2023/08/27 02:04:03;;;;;;;11.45;9.35;;;;;;;;;;5041206;28;20037;-76
2023/08/27 02:06:30;;;;;;;12.68;10.30;;;;;;;;;;5056101;28;20085;-76
2023/08/27 02:08:56;;;;;;;11.25;9.77;;;;;;;;;;5067424;28;20049;-77
2023/08/27 02:11:22;;;;;;;11.23;8.98;;;;;;;;;;5050921;28;20418;-77
2023/08/27 02:13:48;;;;;;;14.73;9.13;;;;;;;;;;5068948;28;20113;-77
2023/08/27 02:16:14;;;;;;;13.32;8.40;;;;;;;;;;5054084;28;20044;-77
2023/08/27 02:18:41;;;;;;;11.65;9.32;;;;;;;;;;5061162;28;20044;-76
2023/08/27 02:21:08;;;;;;;9.93;8.38;;;;;;;;;;5063036;28;20052;-77
2023/08/27 02:23:34;;;;;;;11.20;9.45;;;;;;;;;;5059113;28;20063;-77
2023/08/27 02:26:00;;;;;;;11.43;9.80;;;;;;;;;;5052325;28;20049;-77
2023/08/27 02:28:27;;;;;;;11.32;9.65;;;;;;;;;;5050235;28;20414;-77
2023/08/27 02:30:56;;;;;;;10.57;8.52;;;;;;;;;;5063184;28;20143;-77
2023/08/27 02:33:23;;;;;;;13.70;8.82;;;;;;;;;;5066734;28;20071;-77
2023/08/27 02:35:49;;;;;;;12.02;10.40;;;;;;;;;;5054623;28;20510;-77
2023/08/27 02:38:15;;;;;;;12.88;10.02;;;;;;;;;;5058077;28;20052;-77
2023/08/27 02:40:41;;;;;;;12.35;9.65;;;;;;;;;;5058922;28;20045;-77
2023/08/27 02:43:08;;;;;;;11.63;10.05;;;;;;;;;;5060231;28;20375;-77
2023/08/27 02:45:34;;;;;;;13.82;9.93;;;;;;;;;;5053471;28;20495;-77
2023/08/27 02:48:00;;;;;;;14.20;9.55;;;;;;;;;;5060801;28;20056;-77
2023/08/27 02:50:26;;;;;;;15.65;9.88;;;;;;;;;;5059293;28;20037;-76
2023/08/27 02:52:52;;;;;;;12.57;9.93;;;;;;;;;;5072510;28;20498;-77
2023/08/27 02:55:18;;;;;;;11.25;10.15;;;;;;;;;;5072613;28;20041;-76
2023/08/27 02:57:44;;;;;;;14.70;10.63;;;;;;;;;;5040869;28;20045;-77
2023/08/27 03:00:10;;;;;;;11.82;10.15;;;;;;;;;;5067388;28;20048;-76
2023/08/27 03:02:37;;;;;;;13.18;10.20;;;;;;;;;;5072376;28;20043;-76
2023/08/27 03:05:04;;;;;;;12.35;10.45;;;;;;;;;;5065962;28;20060;-76
2023/08/27 03:07:30;;;;;;;11.75;10.02;;;;;;;;;;5053554;28;20049;-76
2023/08/27 03:09:56;;;;;;;11.98;10.77;;;;;;;;;;5059834;28;20425;-77
2023/08/27 03:12:23;;;;;;;12.98;10.25;;;;;;;;;;5066857;28;20144;-77
2023/08/27 03:14:49;;;;;;;13.45;10.50;;;;;;;;;;5055296;28;20045;-77
2023/08/27 03:17:15;;;;;;;13.90;10.82;;;;;;;;;;5052790;28;20052;-77
2023/08/27 03:19:41;;;;;;;12.63;10.70;;;;;;;;;;5056918;28;20067;-77
2023/08/27 03:22:07;;;;;;;12.68;10.25;;;;;;;;;;5069194;28;20045;-76
2023/08/27 03:24:33;;;;;;;13.00;9.88;;;;;;;;;;5036399;28;20045;-77
2023/08/27 03:26:59;;;;;;;13.25;10.35;;;;;;;;;;5058183;28;20067;-76
2023/08/27 03:29:27;;;;;;;11.38;10.15;;;;;;;;;;5071000;28;20037;-77
2023/08/27 03:31:53;;;;;;;12.63;10.02;;;;;;;;;;5057794;28;20123;-76
2023/08/27 03:34:19;;;;;;;12.40;10.05;;;;;;;;;;5066421;28;20070;-77
2023/08/27 03:36:45;;;;;;;13.95;10.00;;;;;;;;;;5049488;28;20482;-77
2023/08/27 03:39:12;;;;;;;12.85;10.68;;;;;;;;;;5048297;28;20042;-76
2023/08/27 03:41:38;;;;;;;12.05;10.10;;;;;;;;;;5049317;28;20056;-75
2023/08/27 03:44:04;;;;;;;11.40;10.20;;;;;;;;;;5049158;28;20049;-75
2023/08/27 03:46:30;;;;;;;13.50;10.10;;;;;;;;;;5052918;28;20033;-75
2023/08/27 03:49:00;;;;;;;14.05;10.60;;;;;;;;;;5062086;28;20040;-76
2023/08/27 03:51:28;;;;;;;11.77;10.45;;;;;;;;;;5040728;28;20064;-76
2023/08/27 03:53:55;;;;;;;11.60;10.48;;;;;;;;;;5046903;28;20091;-76
2023/08/27 03:56:21;;;;;;;11.73;10.10;;;;;;;;;;5036937;28;20053;-76
2023/08/27 03:58:47;;;;;;;12.23;10.65;;;;;;;;;;5054579;28;20051;-76
2023/08/27 04:01:14;;;;;;;12.05;10.70;;;;;;;;;;5067652;28;20044;-76
2023/08/27 04:03:40;;;;;;;13.05;10.63;;;;;;;;;;5054685;28;20040;-76
2023/08/27 04:06:07;;;;;;;16.33;10.77;;;;;;;;;;5064092;28;20060;-76
2023/08/27 04:08:33;;;;;;;14.18;11.15;;;;;;;;;;5050104;28;20041;-76
2023/08/27 04:10:59;;;;;;;14.68;10.93;;;;;;;;;;5051411;28;20037;-77
2023/08/27 04:13:25;;;;;;;12.15;10.68;;;;;;;;;;5070658;28;20063;-76
2023/08/27 04:15:59;;;;;;;13.40;9.88;;;;;;;;;;5070243;28;20079;-76
2023/08/27 04:18:25;;;;;;;12.63;10.77;;;;;;;;;;5055670;28;20099;-76
2023/08/27 04:20:52;;;;;;;12.93;9.70;;;;;;;;;;5031334;28;20041;-76
2023/08/27 04:23:18;;;;;;;11.30;10.20;;;;;;;;;;5067082;28;20079;-76
2023/08/27 04:25:44;;;;;;;13.48;10.90;;;;;;;;;;5065466;28;20040;-76
2023/08/27 04:28:10;;;;;;;12.35;10.82;;;;;;;;;;5071160;28;20045;-76
2023/08/27 04:30:37;;;;;;;10.77;9.75;;;;;;;;;;5063728;28;20193;-76
2023/08/27 04:33:05;;;;;;;12.90;10.10;;;;;;;;;;5067156;28;20037;-76
2023/08/27 04:35:31;;;;;;;12.20;10.10;;;;;;;;;;5047726;28;20061;-76
2023/08/27 04:37:57;;;;;;;14.02;10.25;;;;;;;;;;5046383;28;20040;-77
2023/08/27 04:40:23;;;;;;;12.52;10.20;;;;;;;;;;5048138;28;20104;-76
2023/08/27 04:42:49;;;;;;;12.10;10.30;;;;;;;;;;5064457;28;20094;-76
2023/08/27 04:45:15;;;;;;;12.38;10.60;;;;;;;;;;5033164;28;20585;-76
2023/08/27 04:47:41;;;;;;;10.52;9.23;;;;;;;;;;5049566;28;20063;-76
2023/08/27 04:50:08;;;;;;;11.57;10.10;;;;;;;;;;5042620;28;20037;-76
2023/08/27 04:52:35;;;;;;;11.93;10.50;;;;;;;;;;5051115;28;20037;-76
2023/08/27 04:55:01;;;;;;;10.68;9.65;;;;;;;;;;5048292;28;20068;-76
2023/08/27 04:57:27;;;;;;;12.50;10.13;;;;;;;;;;5047662;28;20409;-76
2023/08/27 04:59:57;;;;;;;10.68;9.57;;;;;;;;;;5057525;28;20045;-76
2023/08/27 05:02:23;;;;;;;11.43;9.57;;;;;;;;;;5046950;28;20052;-76
2023/08/27 05:04:49;;;;;;;11.35;9.50;;;;;;;;;;5061669;28;20052;-76
2023/08/27 05:07:16;;;;;;;10.90;9.80;;;;;;;;;;5039417;28;20470;-76
2023/08/27 05:09:42;;;;;;;11.27;10.07;;;;;;;;;;5049605;28;20037;-76
2023/08/27 05:12:08;;;;;;;10.73;9.63;;;;;;;;;;5067327;28;20095;-76
2023/08/27 05:14:34;;;;;;;11.52;9.60;;;;;;;;;;5045448;28;20052;-76
2023/08/27 05:17:00;;;;;;;11.35;9.30;;;;;;;;;;5050621;28;20495;-76
2023/08/27 05:19:26;;;;;;;11.40;9.20;;;;;;;;;;5047008;28;20049;-76
2023/08/27 05:21:52;;;;;;;10.85;9.73;;;;;;;;;;5035647;28;20038;-76
2023/08/27 05:24:18;;;;;;;11.27;9.68;;;;;;;;;;5046179;28;20045;-76
2023/08/27 05:26:44;;;;;;;9.82;8.85;;;;;;;;;;5044814;28;20045;-76
2023/08/27 05:29:10;;;;;;;11.32;9.32;;;;;;;;;;5050759;28;20045;-76
2023/08/27 05:31:36;;;;;;;10.75;8.80;;;;;;;;;;5046710;28;20064;-76
2023/08/27 05:34:03;;;;;;;9.60;8.57;;;;;;;;;;5048327;28;20053;-77
2023/08/27 05:36:29;;;;;;;10.52;9.18;;;;;;;;;;5042424;28;20044;-76
2023/08/27 05:38:55;;;;;;;10.70;8.02;;;;;;;;;;5043741;28;20079;-76
2023/08/27 05:41:21;;;;;;;9.48;8.45;;;;;;;;;;5063107;28;20060;-77
2023/08/27 05:43:49;;;;;;;9.82;7.18;;;;;;;;;;5033975;28;20041;-77
2023/08/27 05:46:15;;;;;;;10.52;6.40;;;;;;;;;;5052189;28;20075;-76
2023/08/27 05:48:42;;;;;;;9.60;6.80;;;;;;;;;;5048548;28;20510;-77
2023/08/27 05:51:08;;;;;;;7.75;6.32;;;;;;;;;;5051876;28;20041;-77
2023/08/27 05:53:34;;;;;;;10.65;6.82;;;;;;;;;;5050156;28;20049;-76
2023/08/27 05:56:00;;;;;;;7.43;5.90;;;;;;;;;;5051280;28;20132;-76
2023/08/27 05:58:27;;;;;;;8.77;6.22;;;;;;;;;;5047836;28;20044;-76
2023/08/27 06:00:56;;;;;;;7.95;6.47;;;;;;;;;;5046212;28;20399;-76
2023/08/27 06:03:22;;;;;;;10.75;6.82;;;;;;;;;;5049303;28;20080;-76
2023/08/27 06:05:49;;;;;;;8.95;6.68;;;;;;;;;;5049693;28;20045;-76
2023/08/27 06:08:15;;;;;;;11.07;6.72;;;;;;;;;;5046489;28;20054;-76
2023/08/27 06:10:41;;;;;;;8.05;6.78;;;;;;;;;;5029181;28;20094;-76
2023/08/27 06:13:07;;;;;;;8.43;6.63;;;;;;;;;;5050223;28;20048;-76
2023/08/27 06:15:37;;;;;;;10.70;6.63;;;;;;;;;;5032176;28;20079;-76
2023/08/27 06:18:04;;;;;;;7.93;6.25;;;;;;;;;;5048473;28;20053;-76
2023/08/27 06:20:30;;;;;;;9.57;6.47;;;;;;;;;;5048581;28;20049;-76
2023/08/27 06:22:57;;;;;;;11.00;7.43;;;;;;;;;;5029478;28;20076;-76
2023/08/27 06:25:23;;;;;;;8.13;6.28;;;;;;;;;;5048659;28;20116;-77
2023/08/27 06:27:50;;;;;;;9.98;6.90;;;;;;;;;;5049597;28;20431;-76
2023/08/27 06:30:16;;;;;;;9.82;6.53;;;;;;;;;;5051341;28;20583;-76
2023/08/27 06:32:42;;;;;;;9.70;6.10;;;;;;;;;;5051809;28;20099;-77
2023/08/27 06:35:09;;;;;;;9.55;5.80;;;;;;;;;;5052081;28;20057;-77
2023/08/27 06:37:35;;;;;;;10.32;6.10;;;;;;;;;;5051217;28;20045;-77
2023/08/27 06:40:01;;;;;;;9.95;5.75;;;;;;;;;;5050900;28;20110;-77
2023/08/27 06:42:27;;;;;;;10.18;5.50;;;;;;;;;;5049696;28;20430;-76
2023/08/27 06:44:53;;;;;;;8.00;5.32;;;;;;;;;;5048157;28;20036;-76
2023/08/27 06:47:19;;;;;;;7.78;5.28;;;;;;;;;;5050609;28;20041;-77
2023/08/27 06:49:45;;;;;;;9.52;5.30;;;;;;;;;;5047870;28;20048;-78
2023/08/27 06:52:11;;;;;;;9.80;5.55;;;;;;;;;;5050481;28;20041;-77
2023/08/27 06:54:38;;;;;;;9.50;5.57;;;;;;;;;;5050052;28;20049;-78
2023/08/27 06:57:04;;;;;;;9.45;6.13;;;;;;;;;;5046172;28;20041;-77
2023/08/27 06:59:30;;;;;;;8.65;6.10;;;;;;;;;;5052058;28;20037;-77
2023/08/27 07:01:57;;;;;;;11.07;6.03;;;;;;;;;;5052415;28;20041;-77
2023/08/27 07:04:23;;;;;;;10.18;6.30;;;;;;;;;;5055262;28;20048;-77
2023/08/27 07:06:49;;;;;;;11.55;5.88;;;;;;;;;;5054096;28;20064;-77
2023/08/27 07:09:16;;;;;;;7.90;5.55;;;;;;;;;;5053913;28;20045;-77
2023/08/27 07:11:42;;;;;;;10.55;5.63;;;;;;;;;;5051450;28;20048;-77
2023/08/27 07:14:08;;;;;;;11.43;5.35;;;;;;;;;;5032877;28;20119;-78
2023/08/27 07:16:34;;;;;;;10.85;5.50;;;;;;;;;;5052620;28;20036;-78
2023/08/27 07:19:00;;;;;;;9.93;5.28;;;;;;;;;;5054047;28;20516;-77
2023/08/27 07:21:26;;;;;;;8.15;4.95;;;;;;;;;;5053506;28;20045;-77
2023/08/27 07:23:52;;;;;;;8.57;4.43;;;;;;;;;;5036806;28;20040;-77
2023/08/27 07:26:18;;;;;;;10.50;4.70;;;;;;;;;;5054681;28;20060;-77
2023/08/27 07:28:44;;;;;;;7.78;4.30;;;;;;;;;;5051950;28;20041;-77
2023/08/27 07:31:10;;;;;;;6.57;4.47;;;;;;;;;;5054287;28;20063;-77
2023/08/27 07:33:36;;;;;;;7.68;4.53;;;;;;;;;;5054252;28;20182;-78
2023/08/27 07:36:02;;;;;;;8.15;4.13;;;;;;;;;;5053995;28;20049;-77
2023/08/27 07:38:28;;;;;;;7.50;4.38;;;;;;;;;;5052932;28;20041;-77
2023/08/27 07:40:54;;;;;;;8.65;4.78;;;;;;;;;;5054112;28;20045;-78
2023/08/27 07:43:21;;;;;;;7.15;4.63;;;;;;;;;;5053539;28;20049;-78
2023/08/27 07:45:47;;;;;;;7.32;4.63;;;;;;;;;;5050803;28;20049;-79
2023/08/27 07:48:13;;;;;;;8.18;3.70;;;;;;;;;;5053691;28;20486;-78
2023/08/27 07:50:39;;;;;;;5.60;3.60;;;;;;;;;;5054327;28;20045;-78
2023/08/27 07:53:05;;;;;;;5.45;2.33;;;;;;;;;;5053563;28;20049;-78
2023/08/27 07:55:34;;;;;;;6.10;2.70;;;;;;;;;;5051736;28;20041;-78
2023/08/27 07:58:00;;;;;;;4.93;2.10;;;;;;;;;;5049187;28;20057;-78
2023/08/27 08:00:26;;;;;;;5.72;2.55;;;;;;;;;;5048541;28;20479;-79
2023/08/27 08:02:52;;;;;;;7.15;2.42;;;;;;;;;;5052264;28;20494;-78
2023/08/27 08:05:18;;;;;;;6.43;2.13;;;;;;;;;;5051468;28;20072;-78
2023/08/27 08:07:45;;;;;;;4.07;1.90;;;;;;;;;;5052127;28;20136;-78
2023/08/27 08:10:11;;;;;;;4.30;1.70;;;;;;;;;;5042180;28;20037;-78
2023/08/27 08:12:37;;;;;;;6.00;1.95;;;;;;;;;;5034491;28;20445;-78
2023/08/27 08:15:03;;;;;;;4.28;1.80;;;;;;;;;;5027502;28;20120;-78
2023/08/27 08:17:29;;;;;;;4.38;1.70;;;;;;;;;;5053566;28;20348;-78
2023/08/27 08:19:55;;;;;;;7.30;1.70;;;;;;;;;;5035287;28;20057;-78
2023/08/27 08:22:21;;;;;;;5.72;1.83;;;;;;;;;;5033971;28;20045;-78
2023/08/27 08:24:47;;;;;;;5.30;2.08;;;;;;;;;;5053839;28;20183;-76
2023/08/27 08:27:13;;;;;;;7.53;1.60;;;;;;;;;;5053378;28;20415;-76
2023/08/27 08:29:39;;;;;;;5.57;1.85;;;;;;;;;;5053359;28;20099;-75
2023/08/27 08:32:06;;;;;;;5.20;1.73;;;;;;;;;;5052860;28;20475;-76
2023/08/27 08:34:32;;;;;;;4.30;1.50;;;;;;;;;;5052051;28;20056;-77
2023/08/27 08:37:00;;;;;;;3.42;1.30;;;;;;;;;;5045818;28;20052;-76
2023/08/27 08:39:26;;;;;;;4.55;1.30;;;;;;;;;;5049398;28;20045;-77
2023/08/27 08:42:00;;;;;;;3.03;1.40;;;;;;;;;;5053105;28;20053;-77
2023/08/27 08:44:49;;;;;;;2.72;0.98;;;;;;;;;;5035549;28;20076;-76
2023/08/27 08:47:18;;;;;;;4.25;1.30;;;;;;;;;;5042520;28;20567;-76
2023/08/27 08:49:47;;;;;;;3.83;1.38;;;;;;;;;;5052931;28;20045;-76
2023/08/27 08:52:20;;;;;;;4.25;1.25;;;;;;;;;;5052447;28;20593;-76
2023/08/27 08:54:48;;;;;;;4.57;1.33;;;;;;;;;;5053100;28;20407;-76
2023/08/27 08:57:15;;;;;;;4.28;1.35;;;;;;;;;;5049520;28;20178;-75
2023/08/27 08:59:42;;;;;;;4.18;1.20;;;;;;;;;;5053407;28;20048;-75
2023/08/27 09:02:11;;;;;;;5.70;1.42;;;;;;;;;;5050978;28;20051;-77
2023/08/27 09:04:38;;;;;;;4.25;1.50;;;;;;;;;;5052010;28;20048;-77
2023/08/27 09:07:05;;;;;;;5.57;1.80;;;;;;;;;;5052555;28;20063;-76
2023/08/27 09:09:32;;;;;;;5.15;1.60;;;;;;;;;;5043314;28;20490;-76
2023/08/27 09:12:00;;;;;;;4.10;1.80;;;;;;;;;;5048330;28;22009;-76
2023/08/27 09:14:26;;;;;;;5.50;1.80;;;;;;;;;;5053290;28;20049;-77
2023/08/27 09:16:52;;;;;;;5.18;1.80;;;;;;;;;;5039592;28;20045;-77
2023/08/27 09:19:18;;;;;;;6.97;1.85;;;;;;;;;;5053298;28;20045;-76
2023/08/27 09:21:44;;;;;;;4.30;1.80;;;;;;;;;;5052446;28;20033;-77
2023/08/27 09:24:11;;;;;;;4.63;2.00;;;;;;;;;;5034810;28;20071;-76
2023/08/27 09:26:38;;;;;;;4.05;1.75;;;;;;;;;;5046732;28;20099;-76
2023/08/27 09:29:05;;;;;;;4.90;2.17;;;;;;;;;;5028386;28;20075;-76
2023/08/27 09:31:45;;;;;;;4.55;2.10;;;;;;;;;;5048021;28;20044;-76
2023/08/27 09:34:13;;;;;;;5.03;1.92;;;;;;;;;;5046134;28;20055;-77
2023/08/27 09:36:40;;;;;;;5.30;2.15;;;;;;;;;;5027115;28;20044;-76
2023/08/27 09:39:12;;;;;;;4.60;1.90;;;;;;;;;;5048731;28;20088;-77
2023/08/27 09:41:40;;;;;;;5.60;2.38;;;;;;;;;;5045839;28;20045;-76
2023/08/27 09:44:07;;;;;;;5.93;2.17;;;;;;;;;;5046733;28;20090;-76
2023/08/27 09:46:33;;;;;;;7.53;2.47;;;;;;;;;;5051191;28;20037;-77
2023/08/27 09:49:00;;;;;;;6.72;2.45;;;;;;;;;;5051437;28;20054;-77
2023/08/27 09:51:28;;;;;;;5.07;2.00;;;;;;;;;;5049700;28;20072;-77
2023/08/27 09:53:54;;;;;;;5.15;1.90;;;;;;;;;;5052621;28;20053;-76
2023/08/27 09:56:24;;;;;;;6.35;2.30;;;;;;;;;;5049439;28;20053;-75
2023/08/27 09:58:51;;;;;;;6.70;2.47;;;;;;;;;;5038026;28;20491;-76
2023/08/27 10:01:18;;;;;;;5.10;2.13;;;;;;;;;;5052005;28;20553;-75
2023/08/27 10:03:46;;;;;;;6.10;2.42;;;;;;;;;;5049281;28;20114;-76
2023/08/27 10:06:12;;;;;;;5.25;1.90;;;;;;;;;;5048234;28;20406;-75
2023/08/27 10:08:50;;;;;;;4.60;2.00;;;;;;;;;;5051255;28;20495;-76
2023/08/27 10:11:16;;;;;;;5.25;2.10;;;;;;;;;;5034368;28;20053;-76
2023/08/27 10:13:44;;;;;;;5.75;2.00;;;;;;;;;;5050180;28;20056;-75
2023/08/27 10:16:12;;;;;;;4.60;1.95;;;;;;;;;;5049891;28;20060;-75
2023/08/27 10:18:39;;;;;;;6.63;2.30;;;;;;;;;;5047638;28;20071;-75
2023/08/27 10:21:07;;;;;;;5.05;2.13;;;;;;;;;;5054332;28;20045;-76
2023/08/27 10:23:33;;;;;;;6.85;2.33;;;;;;;;;;5037497;28;20041;-75
2023/08/27 10:26:00;;;;;;;7.05;2.10;;;;;;;;;;5052052;28;20094;-76
2023/08/27 10:28:27;;;;;;;6.38;2.10;;;;;;;;;;5050280;28;20052;-75
2023/08/27 10:30:55;;;;;;;7.63;1.80;;;;;;;;;;5051425;28;20041;-75
2023/08/27 10:33:21;;;;;;;7.40;1.98;;;;;;;;;;5045133;28;20769;-76
2023/08/27 10:35:48;;;;;;;4.72;2.10;;;;;;;;;;5044175;28;20045;-76
2023/08/27 10:38:15;;;;;;;5.43;2.00;;;;;;;;;;5047468;28;20057;-75
2023/08/27 10:40:43;;;;;;;5.15;2.15;;;;;;;;;;5055791;28;20049;-76
2023/08/27 10:43:16;;;;;;;5.05;1.92;;;;;;;;;;5029584;28;20045;-76
2023/08/27 10:45:42;;;;;;;5.10;2.08;;;;;;;;;;5035878;28;20042;-75
2023/08/27 10:48:12;;;;;;;5.63;1.90;;;;;;;;;;5033555;28;20445;-75
2023/08/27 10:50:43;;;;;;;5.75;2.30;;;;;;;;;;5053257;28;20064;-76
2023/08/27 10:53:09;;;;;;;5.93;2.20;;;;;;;;;;5055448;28;20040;-75
2023/08/27 10:55:35;;;;;;;5.25;1.90;;;;;;;;;;5055067;28;20130;-75
2023/08/27 10:58:21;;;;;;;6.20;2.22;;;;;;;;;;5054866;28;20055;-76
2023/08/27 11:01:06;;;;;;;6.57;2.53;;;;;;;;;;5052329;28;20045;-76
2023/08/27 11:03:57;;;;;;;9.82;2.78;;;;;;;;;;5052488;28;20084;-76
2023/08/27 11:06:40;;;;;;;5.35;2.30;;;;;;;;;;5047639;28;20053;-77
2023/08/27 11:09:27;;;;;;;6.80;2.42;;;;;;;;;;5036403;28;20041;-76
2023/08/27 11:11:54;;;;;;;6.75;2.38;;;;;;;;;;5031481;28;20045;-75
2023/08/27 11:14:21;;;;;;;5.03;1.73;;;;;;;;;;5052816;28;20041;-77
2023/08/27 11:16:49;;;;;;;7.20;2.88;;;;;;;;;;5049251;28;20033;-76
2023/08/27 11:19:23;;;;;;;7.07;2.47;;;;;;;;;;5017234;28;20498;-77
2023/08/27 11:21:50;;;;;;;4.85;1.75;;;;;;;;;;5054754;28;20070;-75
2023/08/27 11:24:26;;;;;;;4.80;1.63;;;;;;;;;;5053130;28;20059;-77
2023/08/27 11:26:53;;;;;;;7.93;2.10;;;;;;;;;;5051362;28;20503;-77
2023/08/27 11:29:23;;;;;;;6.93;1.95;;;;;;;;;;5051882;28;20074;-76
2023/08/27 11:31:49;;;;;;;6.10;2.22;;;;;;;;;;5038010;28;20048;-77
2023/08/27 11:34:15;;;;;;;5.90;1.90;;;;;;;;;;5051574;28;20483;-75
2023/08/27 11:36:45;;;;;;;5.80;1.88;;;;;;;;;;5053564;28;20411;-76
2023/08/27 11:39:13;;;;;;;5.57;1.60;;;;;;;;;;5052180;28;20075;-75
2023/08/27 11:41:40;;;;;;;8.18;2.67;;;;;;;;;;5045243;28;20084;-76
2023/08/27 11:44:07;;;;;;;6.05;2.00;;;;;;;;;;5051058;28;20344;-76
2023/08/27 11:46:34;;;;;;;6.28;2.45;;;;;;;;;;5048627;28;20041;-76
2023/08/27 11:49:00;;;;;;;6.07;2.65;;;;;;;;;;5049288;28;20252;-75
2023/08/27 11:51:26;;;;;;;6.45;2.42;;;;;;;;;;5036929;28;20055;-75
2023/08/27 11:53:53;;;;;;;5.30;1.95;;;;;;;;;;5051251;28;20044;-75
2023/08/27 11:56:19;;;;;;;4.75;1.98;;;;;;;;;;5046863;28;20424;-75
2023/08/27 11:58:45;;;;;;;7.15;2.45;;;;;;;;;;5050623;28;20076;-76
2023/08/27 12:01:12;;;;;;;5.93;2.20;;;;;;;;;;5050623;28;20072;-76
2023/08/27 12:03:38;;;;;;;6.70;2.60;;;;;;;;;;5050235;28;20045;-75
2023/08/27 12:06:05;;;;;;;8.63;2.45;;;;;;;;;;5050780;28;20072;-76
2023/08/27 12:08:34;;;;;;;6.40;2.10;;;;;;;;;;5053214;28;20517;-76
2023/08/27 12:11:00;;;;;;;7.13;2.33;;;;;;;;;;5035323;28;20053;-75
2023/08/27 12:13:27;;;;;;;5.45;2.10;;;;;;;;;;5051759;28;20037;-76
2023/08/27 12:15:54;;;;;;;4.22;1.70;;;;;;;;;;5052737;28;20033;-75
2023/08/27 12:18:20;;;;;;;5.00;1.67;;;;;;;;;;5051545;28;20052;-75
2023/08/27 12:20:50;;;;;;;4.22;1.55;;;;;;;;;;5052005;28;20055;-76
2023/08/27 12:23:16;;;;;;;7.40;2.00;;;;;;;;;;5052830;28;21088;-76
2023/08/27 12:25:49;;;;;;;4.78;1.40;;;;;;;;;;5051553;28;20047;-75
2023/08/27 12:28:16;;;;;;;4.35;1.10;;;;;;;;;;5050506;28;21464;-75
2023/08/27 12:30:46;;;;;;;3.67;1.23;;;;;;;;;;5052043;28;20395;-75
2023/08/27 12:33:13;;;;;;;9.65;2.85;;;;;;;;;;5052314;28;20048;-76
2023/08/27 12:35:39;;;;;;;7.82;2.33;;;;;;;;;;5050846;28;20075;-75
2023/08/27 12:38:05;;;;;;;7.93;2.00;;;;;;;;;;5052428;28;20040;-75
2023/08/27 12:40:31;;;;;;;5.32;2.05;;;;;;;;;;5051525;28;20448;-75
2023/08/27 12:42:58;;;;;;;4.28;1.60;;;;;;;;;;5052149;28;20068;-75
2023/08/27 12:45:24;;;;;;;4.60;1.98;;;;;;;;;;5034207;28;20044;-75
2023/08/27 12:47:50;;;;;;;6.47;2.30;;;;;;;;;;5052084;28;20056;-75
2023/08/27 12:50:16;;;;;;;4.40;1.95;;;;;;;;;;5048096;28;20734;-75
2023/08/27 12:52:42;;;;;;;5.85;2.30;;;;;;;;;;5045803;28;20490;-75
2023/08/27 12:55:08;;;;;;;4.20;2.00;;;;;;;;;;5046157;28;20048;-75
2023/08/27 12:57:34;;;;;;;6.28;2.90;;;;;;;;;;5044045;28;20049;-75
2023/08/27 13:00:00;;;;;;;8.50;2.40;;;;;;;;;;5043927;28;20111;-75
2023/08/27 13:02:27;;;;;;;6.53;3.28;;;;;;;;;;5046212;28;20061;-75
2023/08/27 13:04:53;;;;;;;5.03;2.17;;;;;;;;;;5044655;28;20570;-77
2023/08/27 13:07:19;;;;;;;5.82;2.35;;;;;;;;;;5044713;28;20056;-77
2023/08/27 13:09:45;;;;;;;4.82;2.42;;;;;;;;;;5032897;28;20045;-77
2023/08/27 13:12:11;;;;;;;4.78;2.78;;;;;;;;;;5050076;28;20399;-78
2023/08/27 13:14:37;;;;;;;8.60;3.40;;;;;;;;;;5050626;28;20037;-77
2023/08/27 13:17:03;;;;;;;8.27;4.32;;;;;;;;;;5048761;28;20103;-77
2023/08/27 13:19:29;;;;;;;7.20;4.22;;;;;;;;;;5034008;28;20616;-77
2023/08/27 13:21:55;;;;;;;6.13;4.00;;;;;;;;;;5050691;28;20040;-76
2023/08/27 13:24:22;;;;;;;7.32;3.90;;;;;;;;;;5051395;28;20376;-77
2023/08/27 13:26:48;;;;;;;6.50;3.75;;;;;;;;;;5051173;28;20641;-78
2023/08/27 13:29:14;;;;;;;7.53;3.80;;;;;;;;;;5051783;28;20052;-77
2023/08/27 13:31:40;;;;;;;7.90;4.55;;;;;;;;;;5032060;28;20160;-77
2023/08/27 13:34:07;;;;;;;7.25;4.40;;;;;;;;;;5051788;28;20052;-77
2023/08/27 13:36:33;;;;;;;9.45;5.13;;;;;;;;;;5049546;28;20510;-77
2023/08/27 13:38:59;;;;;;;9.20;4.68;;;;;;;;;;5017116;28;20044;-77
2023/08/27 13:41:25;;;;;;;6.10;3.92;;;;;;;;;;5051716;28;20530;-77
2023/08/27 13:43:51;;;;;;;6.60;4.25;;;;;;;;;;5051525;28;20045;-76
2023/08/27 13:46:17;;;;;;;6.30;4.10;;;;;;;;;;5051113;28;20076;-77
2023/08/27 13:48:43;;;;;;;6.07;3.53;;;;;;;;;;5048548;28;20053;-77
2023/08/27 13:51:10;;;;;;;6.40;4.10;;;;;;;;;;5050842;28;20068;-77
2023/08/27 13:53:36;;;;;;;6.00;3.50;;;;;;;;;;5030513;28;20037;-77
2023/08/27 13:56:02;;;;;;;7.07;4.10;;;;;;;;;;5051314;28;20685;-77
2023/08/27 13:58:29;;;;;;;7.38;4.30;;;;;;;;;;5050961;28;20041;-77
2023/08/27 14:00:56;;;;;;;8.90;3.90;;;;;;;;;;5050765;28;20128;-78
2023/08/27 14:03:23;;;;;;;5.57;3.17;;;;;;;;;;5051615;28;20048;-77
2023/08/27 14:05:49;;;;;;;4.30;1.92;;;;;;;;;;5033936;28;20190;-77
2023/08/27 14:08:23;;;;;;;4.43;2.38;;;;;;;;;;5047880;28;20080;-77
2023/08/27 14:10:49;;;;;;;5.20;1.85;;;;;;;;;;5053096;28;20079;-77
2023/08/27 14:13:15;;;;;;;3.72;1.55;;;;;;;;;;5054863;28;20052;-77
2023/08/27 14:15:41;;;;;;;4.30;1.33;;;;;;;;;;5052141;28;20056;-77
2023/08/27 14:18:07;;;;;;;3.47;1.33;;;;;;;;;;5050276;28;20052;-77
2023/08/27 14:20:33;;;;;;;4.90;2.20;;;;;;;;;;5052816;28;20048;-77
2023/08/27 14:22:59;;;;;;;4.95;2.60;;;;;;;;;;5054558;28;20076;-77
2023/08/27 14:25:25;;;;;;;5.40;2.30;;;;;;;;;;5054722;28;20044;-76
2023/08/27 14:27:51;;;;;;;3.85;2.15;;;;;;;;;;5054202;28;20080;-76
2023/08/27 14:30:18;;;;;;;5.30;2.58;;;;;;;;;;5054778;28;20045;-76
2023/08/27 14:32:44;;;;;;;4.38;2.30;;;;;;;;;;5055096;28;20068;-77
2023/08/27 14:35:10;;;;;;;5.78;3.15;;;;;;;;;;5054450;28;20048;-77